Accedi per prenotare

Situazione Metar e Taf aeroporto Pisa - Effemeridi Aeroporto Lucca

[Source: ADDS]
METAR
LIRP 222315Z 19004KT CAVOK 12/06 Q1011 NOSIG =
TAF
LIRP 222300Z 2300/2324 02010KT CAVOK PROB40 TEMPO 2301/2309 35015G25KT BECMG 2310/2312 32013KT BECMG 2315/2317 35015G25KT BECMG 2320/2322 02010KT =
SR / SS: 05:43 / 16:24 UTC (Effemeridi LIQL 2017-10-23)